Time;durP1;ratioP1;P1;durP2;ratioP2;P2;SDS_P1;SDS_P2;PMS_P1;PMS_P2;Temp;Humidity;BMP_temperature;BMP_pressure;BME280_temperature;BME280_humidity;BME280_pressure;Samples;Min_cycle;Max_cycle;Signal;HPM_P1;HPM_P2
2022/12/03 00:01:18;;;;;;;44.60;40.70;;;3.10;99.90;;;;;;4969650;28;20554;-72
2022/12/03 00:03:45;;;;;;;43.13;39.30;;;3.00;99.90;;;;;;4970026;28;20442;-73
2022/12/03 00:06:12;;;;;;;45.13;41.00;;;3.10;99.90;;;;;;4969830;28;20449;-72
2022/12/03 00:08:38;;;;;;;45.67;41.23;;;3.10;99.90;;;;;;4970089;28;20446;-73
2022/12/03 00:11:05;;;;;;;44.27;40.37;;;3.00;99.90;;;;;;4969584;28;21013;-72
2022/12/03 00:13:32;;;;;;;43.93;40.27;;;3.00;99.90;;;;;;4969846;28;20453;-70
2022/12/03 00:15:59;;;;;;;44.67;40.77;;;3.00;99.90;;;;;;4969738;28;20946;-72
2022/12/03 00:18:27;;;;;;;46.73;42.43;;;3.10;99.90;;;;;;4970155;28;20451;-71
2022/12/03 00:20:54;;;;;;;44.93;40.57;;;3.10;99.90;;;;;;4970085;28;20443;-72
2022/12/03 00:23:20;;;;;;;44.33;40.10;;;3.20;99.90;;;;;;4969786;28;20443;-71
2022/12/03 00:25:47;;;;;;;44.07;40.13;;;3.20;99.90;;;;;;4969631;28;20443;-73
2022/12/03 00:28:14;;;;;;;47.00;42.50;;;3.20;99.90;;;;;;4969964;28;20447;-71
2022/12/03 00:30:41;;;;;;;45.87;41.57;;;3.20;99.90;;;;;;4973287;28;20822;-73
2022/12/03 00:33:07;;;;;;;46.40;42.17;;;3.30;99.90;;;;;;4973442;28;20447;-73
2022/12/03 00:35:35;;;;;;;45.70;41.40;;;3.40;99.90;;;;;;4973338;28;20451;-72
2022/12/03 00:38:02;;;;;;;46.90;42.50;;;3.50;99.90;;;;;;4972892;28;20547;-71
2022/12/03 00:40:29;;;;;;;47.90;43.53;;;3.50;99.90;;;;;;4970286;28;20538;-71
2022/12/03 00:42:56;;;;;;;49.00;44.43;;;3.60;99.90;;;;;;4973049;28;20451;-71
2022/12/03 00:45:25;;;;;;;44.27;40.67;;;3.60;99.90;;;;;;4972951;28;20524;-71
2022/12/03 00:47:51;;;;;;;46.03;41.83;;;3.60;99.90;;;;;;4970451;28;20465;-72
2022/12/03 00:50:18;;;;;;;45.77;41.50;;;3.60;99.90;;;;;;4972528;28;20557;-72
2022/12/03 00:52:46;;;;;;;46.17;42.10;;;3.70;99.90;;;;;;4972662;28;20577;-72
2022/12/03 00:55:13;;;;;;;46.07;41.93;;;3.80;99.90;;;;;;4972606;28;20561;-71
2022/12/03 00:57:40;;;;;;;47.27;42.97;;;3.90;99.90;;;;;;4972820;28;20471;-71
2022/12/03 01:00:10;;;;;;;44.10;40.10;;;3.90;99.90;;;;;;4972835;28;20474;-71
2022/12/03 01:02:37;;;;;;;44.67;40.57;;;4.00;99.90;;;;;;4972465;28;20461;-72
2022/12/03 01:05:04;;;;;;;47.03;42.77;;;4.00;99.90;;;;;;4972393;28;21004;-73
2022/12/03 01:07:31;;;;;;;45.80;41.70;;;4.10;99.90;;;;;;4972471;28;20451;-72
2022/12/03 01:09:59;;;;;;;45.67;41.67;;;4.10;99.90;;;;;;4972389;28;20442;-72
2022/12/03 01:12:26;;;;;;;47.57;43.20;;;4.10;99.90;;;;;;4972284;28;20476;-71
2022/12/03 01:14:52;;;;;;;44.83;40.63;;;4.10;99.90;;;;;;4972836;28;20451;-71
2022/12/03 01:17:19;;;;;;;46.37;42.00;;;4.20;99.90;;;;;;4972224;28;20937;-71
2022/12/03 01:19:46;;;;;;;45.67;41.37;;;4.20;99.90;;;;;;4972258;28;20450;-71
2022/12/03 01:22:13;;;;;;;47.10;42.57;;;4.20;99.90;;;;;;4972114;28;21097;-71
2022/12/03 01:24:39;;;;;;;45.67;41.43;;;4.20;99.90;;;;;;4972596;28;20454;-72
2022/12/03 01:27:07;;;;;;;48.27;43.83;;;4.00;99.90;;;;;;4972181;28;20538;-72
2022/12/03 01:29:34;;;;;;;45.87;41.33;;;4.20;99.90;;;;;;4971673;28;20968;-72
2022/12/03 01:32:15;;;;;;;44.80;40.43;;;4.20;99.90;;;;;;4971948;28;20483;-72
2022/12/03 01:34:42;;;;;;;47.50;43.10;;;4.30;99.90;;;;;;4971146;28;21067;-72
2022/12/03 01:37:09;;;;;;;46.40;42.17;;;4.30;99.90;;;;;;4969534;28;20794;-72
2022/12/03 01:39:35;;;;;;;45.07;41.00;;;4.30;99.90;;;;;;4971507;28;20933;-73
2022/12/03 01:42:03;;;;;;;43.73;39.73;;;4.40;99.90;;;;;;4969461;28;20447;-72
2022/12/03 01:44:33;;;;;;;43.23;39.43;;;4.50;99.90;;;;;;4969267;28;20451;-72
2022/12/03 01:47:03;;;;;;;45.03;41.00;;;4.50;99.90;;;;;;4971762;28;20444;-72
2022/12/03 01:49:36;;;;;;;43.93;40.13;;;4.40;99.90;;;;;;4969291;28;20451;-72
2022/12/03 01:52:03;;;;;;;45.20;40.80;;;4.30;99.90;;;;;;4971529;28;20475;-72
2022/12/03 01:54:36;;;;;;;43.87;40.00;;;4.40;99.90;;;;;;4968861;28;20506;-72
2022/12/03 01:57:03;;;;;;;44.73;40.73;;;4.40;99.90;;;;;;4971423;28;20444;-72
2022/12/03 01:59:35;;;;;;;42.87;38.77;;;4.50;99.90;;;;;;4968724;28;20492;-72
2022/12/03 02:02:11;;;;;;;42.70;39.00;;;4.60;99.90;;;;;;4971419;28;20445;-73
2022/12/03 02:04:38;;;;;;;41.93;38.27;;;4.50;99.90;;;;;;4970081;28;20544;-73
2022/12/03 02:07:21;;;;;;;41.03;37.13;;;4.50;99.90;;;;;;4971640;28;20452;-73
2022/12/03 02:09:48;;;;;;;40.27;37.10;;;4.60;99.90;;;;;;4967549;28;20447;-72
2022/12/03 02:12:17;;;;;;;39.70;36.00;;;4.70;99.90;;;;;;4971181;28;20828;-73
2022/12/03 02:14:45;;;;;;;39.93;36.50;;;4.70;99.90;;;;;;4971155;28;20451;-72
2022/12/03 02:17:13;;;;;;;39.80;36.30;;;4.80;99.90;;;;;;4968919;28;20455;-72
2022/12/03 02:19:40;;;;;;;41.33;37.70;;;4.80;99.90;;;;;;4970903;28;20436;-73
2022/12/03 02:22:16;;;;;;;42.37;38.00;;;4.70;99.90;;;;;;4971099;28;20519;-73
2022/12/03 02:24:50;;;;;;;40.43;36.87;;;4.80;99.90;;;;;;4970967;28;20450;-73
2022/12/03 02:27:18;;;;;;;37.97;34.47;;;4.70;99.90;;;;;;4971716;28;20754;-72
2022/12/03 02:29:45;;;;;;;38.20;35.00;;;4.70;99.90;;;;;;4971418;28;20446;-73
2022/12/03 02:32:12;;;;;;;37.33;33.93;;;4.80;99.90;;;;;;4971669;28;20497;-73
2022/12/03 02:34:41;;;;;;;37.70;34.50;;;4.80;99.90;;;;;;4971789;28;20448;-73
2022/12/03 02:37:11;;;;;;;38.67;35.27;;;4.80;99.90;;;;;;4971641;28;20459;-73
2022/12/03 02:39:43;;;;;;;37.63;34.33;;;4.90;99.90;;;;;;4971573;28;20798;-72
2022/12/03 02:44:57;;;;;;;38.97;35.10;;;4.90;99.90;;;;;;4971451;28;20797;-73
2022/12/03 02:47:24;;;;;;;39.43;35.80;;;4.90;99.90;;;;;;4970768;28;20456;-73
2022/12/03 02:49:52;;;;;;;39.07;35.47;;;4.80;99.90;;;;;;4971223;28;20543;-73
2022/12/03 02:52:19;;;;;;;39.33;35.67;;;4.90;99.90;;;;;;4970641;28;20489;-72
2022/12/03 02:54:47;;;;;;;39.43;35.70;;;4.80;99.90;;;;;;4970662;28;20448;-73
2022/12/03 02:57:14;;;;;;;37.20;33.90;;;4.80;99.90;;;;;;4970635;28;20486;-73
2022/12/03 02:59:43;;;;;;;38.40;34.47;;;4.90;99.90;;;;;;4970887;28;20467;-73
2022/12/03 03:02:12;;;;;;;36.63;33.40;;;4.90;99.90;;;;;;4970828;28;20462;-73
2022/12/03 03:04:39;;;;;;;37.90;34.33;;;4.90;99.90;;;;;;4970890;28;20455;-73
2022/12/03 03:07:06;;;;;;;38.60;35.23;;;5.00;99.90;;;;;;4970934;28;20467;-72
2022/12/03 03:09:33;;;;;;;37.73;34.43;;;4.90;99.90;;;;;;4970583;28;20546;-73
2022/12/03 03:12:00;;;;;;;37.90;34.60;;;5.00;99.90;;;;;;4970888;28;20579;-73
2022/12/03 03:14:27;;;;;;;38.43;34.73;;;5.10;99.90;;;;;;4970762;28;20447;-73
2022/12/03 03:16:55;;;;;;;38.30;34.60;;;5.20;99.90;;;;;;4970914;28;20474;-73
2022/12/03 03:19:24;;;;;;;37.07;33.67;;;5.20;99.90;;;;;;4970543;28;20534;-73
2022/12/03 03:21:51;;;;;;;38.03;34.57;;;5.20;99.90;;;;;;4970782;28;20444;-73
2022/12/03 03:24:18;;;;;;;38.27;34.87;;;5.00;99.90;;;;;;4970610;28;20463;-73
2022/12/03 03:26:45;;;;;;;38.73;34.90;;;5.20;99.90;;;;;;4970738;28;20451;-72
2022/12/03 03:29:12;;;;;;;36.67;33.57;;;5.20;99.90;;;;;;4970395;28;20458;-73
2022/12/03 03:31:40;;;;;;;35.57;32.47;;;5.10;99.90;;;;;;4970871;28;20451;-73
2022/12/03 03:34:10;;;;;;;36.47;33.30;;;5.10;99.90;;;;;;4970837;28;20459;-71
2022/12/03 03:36:39;;;;;;;35.13;32.17;;;5.20;99.90;;;;;;4968781;28;20451;-73
2022/12/03 03:39:06;;;;;;;35.00;32.30;;;5.10;99.90;;;;;;4969376;28;20941;-72
2022/12/03 03:41:34;;;;;;;37.30;33.90;;;5.10;99.90;;;;;;4970314;28;20794;-73
2022/12/03 03:44:01;;;;;;;34.57;31.70;;;5.20;99.90;;;;;;4970080;28;20446;-72
2022/12/03 03:46:29;;;;;;;33.90;30.93;;;5.30;99.90;;;;;;4970121;28;20454;-73
2022/12/03 03:48:55;;;;;;;35.60;32.60;;;5.30;99.90;;;;;;4970208;28;20993;-73
2022/12/03 03:51:22;;;;;;;38.57;34.80;;;5.30;99.90;;;;;;4970431;28;20462;-72
2022/12/03 03:53:51;;;;;;;35.80;32.40;;;5.30;99.90;;;;;;4969720;28;20484;-72
2022/12/03 03:56:20;;;;;;;34.90;31.80;;;5.40;99.90;;;;;;4969836;28;20454;-73
2022/12/03 03:58:46;;;;;;;35.50;32.40;;;5.30;99.90;;;;;;4969686;28;20510;-72
2022/12/03 04:01:14;;;;;;;35.07;31.17;;;5.20;99.90;;;;;;4969942;28;20949;-72
2022/12/03 04:03:41;;;;;;;33.37;30.10;;;5.20;99.90;;;;;;4971007;28;20456;-72
2022/12/03 04:06:09;;;;;;;36.23;32.80;;;5.10;99.90;;;;;;4973689;28;20467;-72
2022/12/03 04:08:35;;;;;;;32.73;29.60;;;5.20;99.90;;;;;;4973874;28;20461;-72
2022/12/03 04:13:48;;;;;;;35.00;31.57;;;5.20;99.90;;;;;;4973732;28;20557;-72
2022/12/03 04:16:15;;;;;;;32.27;29.13;;;5.40;99.90;;;;;;4973423;28;20547;-72
2022/12/03 04:18:44;;;;;;;33.07;30.00;;;5.40;99.90;;;;;;4973706;28;20764;-72
2022/12/03 04:23:57;;;;;;;34.53;31.43;;;5.40;99.90;;;;;;4973428;28;20454;-72
2022/12/03 04:29:09;;;;;;;33.03;29.80;;;5.40;99.90;;;;;;4973936;28;20450;-72
2022/12/03 04:37:05;;;;;;;32.20;29.20;;;5.40;99.90;;;;;;4973308;28;20442;-72
2022/12/03 04:39:32;;;;;;;31.40;28.60;;;5.10;99.90;;;;;;4973221;28;20458;-72
2022/12/03 04:42:00;;;;;;;31.70;28.90;;;5.30;99.90;;;;;;4973110;28;20453;-72
2022/12/03 04:44:34;;;;;;;32.10;29.00;;;5.40;99.90;;;;;;4972823;28;20460;-72
2022/12/03 04:47:03;;;;;;;32.97;29.90;;;5.50;99.90;;;;;;4973077;28;20455;-72
2022/12/03 04:49:30;;;;;;;32.80;29.63;;;5.40;99.90;;;;;;4973112;28;20456;-72
2022/12/03 04:51:56;;;;;;;33.30;30.23;;;5.50;99.90;;;;;;4972949;28;20841;-72
2022/12/03 04:54:23;;;;;;;31.83;28.73;;;5.50;99.90;;;;;;4973124;28;20936;-72
2022/12/03 04:56:50;;;;;;;33.57;30.37;;;5.40;99.90;;;;;;4973064;28;20447;-71
2022/12/03 04:59:18;;;;;;;31.03;28.00;;;5.30;99.90;;;;;;4972828;28;20476;-73
2022/12/03 05:01:45;;;;;;;31.37;28.53;;;5.40;99.90;;;;;;4972814;28;20448;-72
2022/12/03 05:04:12;;;;;;;32.20;29.13;;;5.20;99.90;;;;;;4972893;28;20459;-72
2022/12/03 05:06:39;;;;;;;31.73;28.73;;;5.30;99.90;;;;;;4972999;28;20451;-72
2022/12/03 05:09:06;;;;;;;33.43;30.13;;;5.40;99.90;;;;;;4972928;28;20452;-73
2022/12/03 05:11:33;;;;;;;32.37;29.20;;;5.40;99.90;;;;;;4972615;28;20440;-72
2022/12/03 05:14:00;;;;;;;31.30;28.37;;;5.40;99.90;;;;;;4972525;28;20845;-72
2022/12/03 05:16:28;;;;;;;32.27;29.20;;;5.40;99.90;;;;;;4972052;28;20478;-75
2022/12/03 05:18:55;;;;;;;32.73;29.33;;;5.40;99.90;;;;;;4972371;28;20547;-75
2022/12/03 05:21:21;;;;;;;31.87;28.77;;;5.50;99.90;;;;;;4972689;28;20467;-72
2022/12/03 05:23:48;;;;;;;32.23;28.90;;;5.50;99.90;;;;;;4972267;28;20802;-72
2022/12/03 05:26:15;;;;;;;33.73;30.53;;;5.50;99.90;;;;;;4972306;28;20459;-73
2022/12/03 05:28:42;;;;;;;32.07;28.93;;;5.40;99.90;;;;;;4972219;28;20459;-72
2022/12/03 05:31:09;;;;;;;31.97;29.10;;;5.50;99.90;;;;;;4972401;28;20917;-72
2022/12/03 05:33:37;;;;;;;31.67;28.63;;;5.60;99.90;;;;;;4972144;28;20484;-73
2022/12/03 05:36:04;;;;;;;32.97;29.57;;;5.60;99.90;;;;;;4972163;28;20791;-73
2022/12/03 05:38:30;;;;;;;32.20;29.43;;;5.60;99.90;;;;;;4971911;28;20692;-72
2022/12/03 05:40:57;;;;;;;33.90;30.53;;;5.50;99.90;;;;;;4972042;28;20812;-72
2022/12/03 05:43:23;;;;;;;30.07;27.30;;;5.60;99.90;;;;;;4972216;28;20809;-72
2022/12/03 05:45:50;;;;;;;31.30;28.40;;;5.50;99.90;;;;;;4972012;28;21037;-72
2022/12/03 05:48:17;;;;;;;32.30;29.27;;;5.60;99.90;;;;;;4971925;28;20451;-72
2022/12/03 05:50:46;;;;;;;31.03;28.40;;;5.60;99.90;;;;;;4972097;28;20448;-73
2022/12/03 05:53:14;;;;;;;32.13;29.23;;;5.60;99.90;;;;;;4971616;28;20495;-73
2022/12/03 05:55:41;;;;;;;30.13;27.63;;;5.70;99.90;;;;;;4972218;28;20447;-72
2022/12/03 05:58:08;;;;;;;31.63;28.70;;;5.70;99.90;;;;;;4972088;28;20478;-72
2022/12/03 06:00:37;;;;;;;32.33;28.90;;;5.70;99.90;;;;;;4971647;28;20436;-72
2022/12/03 06:03:04;;;;;;;31.37;28.20;;;5.80;99.90;;;;;;4985995;28;20456;-72
2022/12/03 06:05:31;;;;;;;31.27;28.43;;;5.80;99.90;;;;;;4990903;28;20450;-72
2022/12/03 06:08:00;;;;;;;30.80;27.87;;;5.70;99.90;;;;;;4990579;28;20446;-72
2022/12/03 06:10:27;;;;;;;33.00;29.60;;;5.60;99.90;;;;;;4990967;28;20443;-73
2022/12/03 06:12:54;;;;;;;34.07;30.83;;;5.60;99.90;;;;;;4991186;28;20839;-73
2022/12/03 06:15:21;;;;;;;34.80;30.97;;;5.70;99.90;;;;;;4990918;28;20447;-72
2022/12/03 06:17:48;;;;;;;32.50;29.23;;;5.80;99.90;;;;;;4991005;28;20789;-72
2022/12/03 06:20:16;;;;;;;34.10;29.73;;;5.70;99.90;;;;;;4990845;28;20557;-73
2022/12/03 06:22:43;;;;;;;33.00;29.60;;;5.70;99.90;;;;;;4990829;28;20453;-73
2022/12/03 06:25:12;;;;;;;33.13;29.60;;;5.30;99.90;;;;;;4991178;28;20459;-71
2022/12/03 06:27:39;;;;;;;29.30;26.60;;;5.40;99.90;;;;;;4990639;28;20447;-71
2022/12/03 06:30:08;;;;;;;32.10;28.87;;;5.40;99.90;;;;;;4990919;28;20450;-74
2022/12/03 06:32:35;;;;;;;33.63;30.23;;;5.40;99.90;;;;;;4990710;28;20880;-73
2022/12/03 06:35:01;;;;;;;30.30;27.37;;;5.40;99.90;;;;;;4990790;28;20450;-72
2022/12/03 06:37:28;;;;;;;37.50;30.90;;;5.50;99.90;;;;;;4990996;28;20509;-72
2022/12/03 06:39:55;;;;;;;31.87;28.77;;;5.50;99.90;;;;;;4991238;28;20462;-71
2022/12/03 06:42:23;;;;;;;30.57;27.37;;;5.50;99.90;;;;;;4991283;28;20463;-71
2022/12/03 06:44:50;;;;;;;31.90;28.60;;;5.30;99.90;;;;;;4991034;28;20468;-71
2022/12/03 06:47:16;;;;;;;33.33;28.90;;;5.20;99.90;;;;;;4990862;28;20473;-71
2022/12/03 06:49:43;;;;;;;33.90;29.80;;;5.20;99.90;;;;;;4990707;28;20457;-71
2022/12/03 06:52:10;;;;;;;32.40;29.13;;;5.30;99.90;;;;;;4990519;28;20451;-71
2022/12/03 06:54:36;;;;;;;32.90;29.70;;;5.30;99.90;;;;;;4990348;28;20482;-71
2022/12/03 07:05:18;;;;;;;32.10;28.30;;;5.40;99.90;;;;;;5084944;23;20487;-75
2022/12/03 07:07:49;;;;;;;30.10;26.90;;;5.30;99.90;;;;;;4994148;28;20786;-76
2022/12/03 07:10:15;;;;;;;33.03;29.67;;;5.30;99.90;;;;;;5010057;28;20453;-77
2022/12/03 07:12:42;;;;;;;31.47;28.23;;;5.40;99.90;;;;;;5010619;28;20482;-75
2022/12/03 07:15:10;;;;;;;34.30;29.57;;;5.40;99.90;;;;;;4996786;28;20824;-76
2022/12/03 07:17:36;;;;;;;33.17;29.63;;;5.40;99.90;;;;;;4991130;28;20462;-77
2022/12/03 07:20:04;;;;;;;32.57;29.30;;;5.50;99.90;;;;;;4990730;28;20447;-76
2022/12/03 07:22:32;;;;;;;31.80;28.50;;;5.50;99.90;;;;;;4990669;28;20470;-76
2022/12/03 07:24:59;;;;;;;35.23;30.93;;;5.60;99.90;;;;;;4990975;28;20469;-76
2022/12/03 07:27:26;;;;;;;31.67;28.53;;;5.50;99.90;;;;;;4990683;28;20451;-74
2022/12/03 07:29:53;;;;;;;37.03;31.93;;;5.40;99.90;;;;;;4990719;28;20442;-76
2022/12/03 07:32:20;;;;;;;33.57;28.63;;;5.40;99.90;;;;;;4991020;28;20438;-76
2022/12/03 07:34:46;;;;;;;34.87;27.63;;;5.30;99.90;;;;;;4990323;28;20488;-75
2022/12/03 07:37:13;;;;;;;33.23;29.73;;;5.30;99.90;;;;;;4990914;28;20476;-75
2022/12/03 07:39:41;;;;;;;37.30;30.20;;;5.30;99.90;;;;;;4993507;28;20454;-76
2022/12/03 07:42:08;;;;;;;35.03;29.03;;;5.20;99.90;;;;;;4995104;28;20840;-75
2022/12/03 07:44:35;;;;;;;35.43;29.60;;;5.30;99.90;;;;;;4994878;28;20874;-75
2022/12/03 07:47:01;;;;;;;35.87;31.20;;;5.30;99.90;;;;;;4994491;28;20451;-75
2022/12/03 07:49:28;;;;;;;34.00;29.43;;;5.50;99.90;;;;;;4993967;28;20450;-76
2022/12/03 07:51:56;;;;;;;35.30;30.13;;;5.40;99.90;;;;;;4994322;28;20457;-75
2022/12/03 07:54:22;;;;;;;33.00;28.47;;;5.40;99.90;;;;;;4994347;28;20486;-76
2022/12/03 07:56:51;;;;;;;31.60;28.20;;;5.40;99.90;;;;;;4993944;28;20451;-74
2022/12/03 07:59:18;;;;;;;32.57;29.13;;;5.40;99.90;;;;;;4994415;28;20545;-75
2022/12/03 08:01:45;;;;;;;32.33;28.83;;;5.30;99.90;;;;;;4994121;28;20456;-76
2022/12/03 08:04:13;;;;;;;31.40;28.20;;;5.30;99.90;;;;;;4993741;28;20481;-74
2022/12/03 08:06:40;;;;;;;31.80;27.73;;;5.30;99.90;;;;;;4995280;28;20458;-78
2022/12/03 08:09:07;;;;;;;34.77;29.47;;;5.30;99.90;;;;;;4994589;28;20457;-75
2022/12/03 08:11:59;;;;;;;30.80;27.80;;;5.30;99.90;;;;;;4994390;28;20814;-73
2022/12/03 08:14:28;;;;;;;31.07;27.70;;;5.30;99.90;;;;;;4990983;28;20494;-76
2022/12/03 08:16:55;;;;;;;31.60;27.60;;;5.30;99.90;;;;;;4993665;28;20509;-75
2022/12/03 08:19:21;;;;;;;34.57;29.20;;;5.30;99.90;;;;;;4993692;28;20461;-77
2022/12/03 08:21:48;;;;;;;33.37;26.40;;;5.30;99.90;;;;;;4993246;28;20797;-76
2022/12/03 08:24:17;;;;;;;30.10;26.90;;;5.20;99.90;;;;;;4993865;28;20457;-77
2022/12/03 08:26:46;;;;;;;27.93;24.93;;;5.20;99.90;;;;;;4993609;28;20796;-77
2022/12/03 08:29:16;;;;;;;31.40;28.00;;;5.30;99.90;;;;;;4993783;28;20465;-76
2022/12/03 08:31:48;;;;;;;29.10;26.30;;;5.40;99.90;;;;;;4993655;28;20466;-76
2022/12/03 08:34:18;;;;;;;32.13;26.70;;;5.40;99.90;;;;;;4993264;28;20497;-76
2022/12/03 08:36:46;;;;;;;28.20;25.33;;;5.30;99.90;;;;;;4993599;28;20450;-76
2022/12/03 08:39:28;;;;;;;27.20;24.50;;;5.30;99.90;;;;;;4993237;28;20454;-77
2022/12/03 08:44:47;;;;;;;30.17;26.90;;;5.40;99.90;;;;;;4993905;28;20504;-76
2022/12/03 08:47:19;;;;;;;29.67;26.70;;;5.40;99.90;;;;;;4994266;28;20450;-76
2022/12/03 08:49:51;;;;;;;32.53;26.90;;;5.40;99.90;;;;;;4993440;28;20450;-76
2022/12/03 08:52:20;;;;;;;29.13;26.10;;;5.40;99.90;;;;;;4995070;28;20452;-76
2022/12/03 08:54:51;;;;;;;29.30;26.27;;;5.40;99.90;;;;;;4993700;28;20494;-77
2022/12/03 08:57:26;;;;;;;29.60;26.57;;;5.40;99.90;;;;;;4993511;28;20459;-76
2022/12/03 08:59:56;;;;;;;30.80;27.60;;;5.40;99.90;;;;;;4993595;28;20453;-76
2022/12/03 09:02:30;;;;;;;29.10;26.10;;;5.40;99.90;;;;;;4993905;28;20471;-76
2022/12/03 09:04:56;;;;;;;29.40;25.87;;;5.40;99.90;;;;;;4993319;28;20482;-78
2022/12/03 09:07:23;;;;;;;31.13;27.80;;;5.40;99.90;;;;;;4993546;28;20455;-76
2022/12/03 09:09:50;;;;;;;31.70;26.40;;;5.30;99.90;;;;;;4993431;28;20447;-76
2022/12/03 09:12:16;;;;;;;34.13;26.53;;;5.30;99.90;;;;;;4995216;28;20457;-76
2022/12/03 09:14:43;;;;;;;27.60;24.80;;;5.20;99.90;;;;;;5008006;28;20486;-77
2022/12/03 09:17:10;;;;;;;31.03;26.57;;;5.20;99.90;;;;;;4994859;28;20458;-76
2022/12/03 09:19:43;;;;;;;30.27;25.43;;;5.00;99.90;;;;;;4996324;28;20481;-78
2022/12/03 09:22:10;;;;;;;31.20;25.77;;;4.90;99.90;;;;;;4995076;28;20454;-78
2022/12/03 09:24:37;;;;;;;29.63;24.70;;;4.80;99.90;;;;;;4993634;28;20444;-77
2022/12/03 09:27:03;;;;;;;33.37;27.33;;;4.70;99.90;;;;;;4993548;28;20520;-77
2022/12/03 09:29:30;;;;;;;32.27;27.77;;;4.60;99.90;;;;;;4992789;28;20948;-77
2022/12/03 09:31:57;;;;;;;37.77;27.37;;;4.60;99.90;;;;;;4990844;28;20458;-76
2022/12/03 09:34:24;;;;;;;32.17;26.43;;;4.70;99.90;;;;;;4992437;28;20502;-76
2022/12/03 09:36:52;;;;;;;28.47;25.07;;;4.80;99.90;;;;;;4992161;28;20465;-76
2022/12/03 09:39:18;;;;;;;29.07;25.93;;;4.90;99.90;;;;;;4992161;28;20451;-75
2022/12/03 09:41:45;;;;;;;30.00;25.20;;;5.10;99.90;;;;;;4991902;28;20453;-75
2022/12/03 09:44:13;;;;;;;27.97;24.97;;;5.00;99.90;;;;;;4991912;28;20808;-75
2022/12/03 09:46:40;;;;;;;26.10;23.47;;;5.20;99.90;;;;;;4991911;28;20442;-77
2022/12/03 09:49:09;;;;;;;32.70;27.17;;;5.30;99.90;;;;;;4992890;28;20462;-78
2022/12/03 09:51:36;;;;;;;27.33;22.63;;;5.20;99.90;;;;;;4995509;28;20804;-76
2022/12/03 09:54:06;;;;;;;25.97;23.40;;;5.30;99.90;;;;;;4992511;28;20489;-73
2022/12/03 09:56:36;;;;;;;25.07;22.40;;;5.40;99.90;;;;;;4991419;28;20458;-75
2022/12/03 09:59:06;;;;;;;24.13;21.60;;;5.70;99.90;;;;;;4991483;28;20470;-75
2022/12/03 10:01:33;;;;;;;23.83;21.63;;;5.80;99.90;;;;;;4990650;28;20513;-76
2022/12/03 10:04:01;;;;;;;26.03;23.37;;;6.00;99.90;;;;;;4991193;28;20494;-75
2022/12/03 10:06:29;;;;;;;25.53;23.07;;;5.90;99.90;;;;;;4991133;28;20458;-75
2022/12/03 10:08:56;;;;;;;25.47;22.60;;;5.90;99.90;;;;;;4991545;28;20450;-76
2022/12/03 10:11:25;;;;;;;24.90;22.63;;;5.90;99.90;;;;;;4991618;28;20458;-76
2022/12/03 10:13:54;;;;;;;25.10;22.17;;;5.60;99.90;;;;;;4991553;28;20486;-75
2022/12/03 10:16:21;;;;;;;25.70;23.23;;;5.40;99.90;;;;;;4991598;28;20443;-76
2022/12/03 10:18:51;;;;;;;26.53;23.93;;;5.20;99.90;;;;;;4991386;28;20462;-76
2022/12/03 10:21:20;;;;;;;26.93;24.10;;;5.10;99.90;;;;;;4991165;28;20785;-76
2022/12/03 10:23:49;;;;;;;29.60;26.40;;;5.00;99.90;;;;;;4990910;28;20824;-76
2022/12/03 10:26:16;;;;;;;28.13;25.33;;;4.90;99.90;;;;;;4991195;28;20454;-75
2022/12/03 10:28:46;;;;;;;27.00;24.23;;;4.90;99.90;;;;;;4991236;28;20447;-77
2022/12/03 10:31:14;;;;;;;25.30;22.80;;;4.90;99.90;;;;;;4991088;28;20458;-75
2022/12/03 10:33:43;;;;;;;27.97;25.23;;;4.80;99.90;;;;;;4990898;28;20495;-76
2022/12/03 10:36:19;;;;;;;27.20;24.00;;;4.90;99.90;;;;;;4990834;28;20819;-76
2022/12/03 10:38:46;;;;;;;24.37;21.87;;;4.90;99.90;;;;;;4991021;28;20466;-77
2022/12/03 10:41:24;;;;;;;26.20;23.47;;;4.90;99.90;;;;;;4990774;28;20449;-75
2022/12/03 10:43:53;;;;;;;27.00;24.37;;;4.90;99.90;;;;;;4990738;28;20455;-77
2022/12/03 10:46:20;;;;;;;27.33;24.20;;;4.90;99.90;;;;;;4990642;28;20442;-76
2022/12/03 10:49:11;;;;;;;29.10;26.00;;;5.00;99.90;;;;;;4957668;28;20587;-75
2022/12/03 10:51:39;;;;;;;27.20;24.60;;;4.90;99.90;;;;;;4990715;28;20973;-76
2022/12/03 10:54:15;;;;;;;27.60;24.83;;;4.90;99.90;;;;;;4990603;28;20545;-76
2022/12/03 10:56:42;;;;;;;28.50;25.57;;;5.00;99.90;;;;;;4990473;28;20452;-76
2022/12/03 10:59:15;;;;;;;26.10;23.50;;;5.00;99.90;;;;;;4990769;28;20979;-76
2022/12/03 11:01:42;;;;;;;28.53;24.97;;;4.90;99.90;;;;;;4990822;28;20519;-76
2022/12/03 11:04:18;;;;;;;26.43;23.60;;;5.00;99.90;;;;;;4990104;28;21012;-75
2022/12/03 11:06:45;;;;;;;25.97;23.50;;;5.10;99.90;;;;;;4990371;28;20625;-75
2022/12/03 11:09:18;;;;;;;26.13;23.57;;;5.20;99.90;;;;;;4990344;28;20454;-76
2022/12/03 11:11:45;;;;;;;30.13;25.23;;;5.10;99.90;;;;;;4990369;28;20443;-75
2022/12/03 11:14:13;;;;;;;31.73;25.63;;;5.10;99.90;;;;;;4989923;28;20552;-74
2022/12/03 11:17:08;;;;;;;29.27;26.20;;;5.10;99.90;;;;;;4990255;28;20458;-75
2022/12/03 11:19:50;;;;;;;23.90;21.53;;;5.10;99.90;;;;;;4990506;28;20542;-76
2022/12/03 11:22:37;;;;;;;25.23;22.83;;;5.00;99.90;;;;;;4992195;28;20985;-77
2022/12/03 11:25:49;;;;;;;26.77;24.23;;;4.90;99.90;;;;;;4990832;28;20553;-77
2022/12/03 11:28:50;;;;;;;25.53;22.93;;;4.90;99.90;;;;;;4990771;28;20453;-75
2022/12/03 11:31:40;;;;;;;23.30;21.03;;;4.90;99.90;;;;;;4990556;28;20446;-75
2022/12/03 11:34:41;;;;;;;25.37;23.00;;;5.00;99.90;;;;;;4990997;28;20484;-76
2022/12/03 11:37:26;;;;;;;27.00;22.57;;;4.80;99.90;;;;;;4988346;28;20883;-76
2022/12/03 11:40:01;;;;;;;23.10;20.87;;;4.90;99.90;;;;;;4990658;28;20455;-76
2022/12/03 11:42:36;;;;;;;25.07;22.63;;;4.80;99.90;;;;;;4989893;28;20464;-76
2022/12/03 11:45:17;;;;;;;25.20;22.70;;;4.90;99.90;;;;;;4990146;28;20528;-75
2022/12/03 11:47:47;;;;;;;24.50;22.27;;;5.00;99.90;;;;;;4990037;28;20597;-75
2022/12/03 11:50:22;;;;;;;24.47;22.13;;;4.90;99.90;;;;;;4989996;28;20446;-75
2022/12/03 11:52:54;;;;;;;25.33;23.07;;;5.00;99.90;;;;;;4990238;28;20446;-76
2022/12/03 11:55:30;;;;;;;23.77;21.50;;;5.00;99.90;;;;;;4990279;28;20491;-74
2022/12/03 11:57:59;;;;;;;24.90;22.30;;;5.10;99.90;;;;;;4989909;28;20447;-75
2022/12/03 12:00:26;;;;;;;23.10;20.57;;;5.10;99.90;;;;;;4989908;28;20467;-75
2022/12/03 12:02:56;;;;;;;24.47;22.07;;;5.20;99.90;;;;;;4990301;28;20561;-76
2022/12/03 12:05:28;;;;;;;25.30;22.80;;;5.30;99.90;;;;;;4990077;28;20474;-76
2022/12/03 12:07:56;;;;;;;25.50;22.97;;;5.30;99.90;;;;;;4997372;28;20684;-75
2022/12/03 12:10:53;;;;;;;22.90;20.90;;;4.90;99.90;;;;;;4992923;28;20964;-77
2022/12/03 12:13:50;;;;;;;24.50;22.20;;;4.80;99.90;;;;;;4930644;29;20449;-75
2022/12/03 12:16:36;;;;;;;25.40;22.80;;;4.70;99.90;;;;;;4988599;28;20788;-75
2022/12/03 12:19:35;;;;;;;27.13;24.43;;;4.70;99.90;;;;;;4978801;28;20491;-75
2022/12/03 12:22:20;;;;;;;25.10;22.53;;;4.80;99.90;;;;;;4989952;28;20516;-75
2022/12/03 12:24:51;;;;;;;27.30;23.93;;;4.80;99.90;;;;;;4990659;28;20450;-75
2022/12/03 12:27:20;;;;;;;28.77;25.53;;;4.70;99.90;;;;;;4993551;28;20511;-75
2022/12/03 12:29:52;;;;;;;28.03;22.77;;;4.60;99.90;;;;;;4993321;28;20617;-76
2022/12/03 12:32:25;;;;;;;23.83;21.47;;;4.70;99.90;;;;;;4993352;28;20446;-75
2022/12/03 12:34:57;;;;;;;27.30;24.47;;;4.50;99.90;;;;;;4993563;28;20909;-76
2022/12/03 12:37:31;;;;;;;27.30;24.53;;;4.50;99.90;;;;;;4993522;28;20446;-76
2022/12/03 12:39:58;;;;;;;24.90;22.37;;;4.60;99.90;;;;;;4993322;28;20978;-75
2022/12/03 12:42:31;;;;;;;24.63;22.10;;;4.50;99.90;;;;;;4993166;28;20943;-75
2022/12/03 12:45:05;;;;;;;25.70;23.13;;;4.60;99.90;;;;;;4992929;28;20449;-75
2022/12/03 12:47:33;;;;;;;24.53;22.13;;;4.50;99.90;;;;;;4993001;28;20454;-75
2022/12/03 12:50:02;;;;;;;24.90;22.40;;;4.50;99.90;;;;;;4993085;28;20460;-75
2022/12/03 12:52:28;;;;;;;23.13;20.23;;;4.40;99.90;;;;;;4992994;28;20458;-75
2022/12/03 12:54:55;;;;;;;23.37;21.17;;;4.30;99.90;;;;;;4992868;28;20482;-75
2022/12/03 12:57:24;;;;;;;24.70;22.30;;;4.30;99.90;;;;;;4992903;28;20446;-75
2022/12/03 12:59:51;;;;;;;23.10;21.00;;;4.30;99.90;;;;;;4993050;28;20450;-76
2022/12/03 13:02:43;;;;;;;26.97;24.10;;;4.30;99.90;;;;;;4992714;28;20484;-76
2022/12/03 13:05:12;;;;;;;23.80;21.47;;;4.30;99.90;;;;;;4991472;28;21007;-74
2022/12/03 13:07:42;;;;;;;23.90;21.50;;;4.40;99.90;;;;;;4988351;28;20453;-76
2022/12/03 13:10:37;;;;;;;25.70;23.13;;;4.60;99.90;;;;;;4992955;28;20468;-75
2022/12/03 13:13:18;;;;;;;25.03;22.53;;;4.60;99.90;;;;;;4990765;28;20459;-75
2022/12/03 13:15:49;;;;;;;24.77;22.53;;;4.80;99.90;;;;;;4980830;28;20493;-75